Time;durP1;ratioP1;P1;durP2;ratioP2;P2;SDS_P1;SDS_P2;PMS_P1;PMS_P2;Temp;Humidity;BMP_temperature;BMP_pressure;BME280_temperature;BME280_humidity;BME280_pressure;Samples;Min_cycle;Max_cycle;Signal;HPM_P1;HPM_P2
2021/12/09 11:49:26;;;;;;;8.73;6.93;;;24.70;59.00;;;;;;3893343;22;20365;-86
2021/12/09 11:50:58;;;;;;;8.27;6.93;;;24.80;59.10;;;;;;3893410;22;20020;-87
2021/12/09 11:52:30;;;;;;;14.35;7.68;;;24.90;58.80;;;;;;3894402;22;20035;-89
2021/12/09 11:54:03;;;;;;;13.53;7.30;;;24.90;56.30;;;;;;3893061;22;20023;-90
2021/12/09 11:55:39;;;;;;;9.10;7.38;;;24.90;56.40;;;;;;3896067;22;20258;-89
2021/12/09 11:57:17;;;;;;;9.85;7.22;;;24.90;57.50;;;;;;3897997;22;20049;-87
2021/12/09 11:59:19;;;;;;;11.10;7.07;;;24.90;57.80;;;;;;3901476;22;20081;-88
2021/12/09 12:12:33;;;;;;;11.48;7.18;;;24.80;59.40;;;;;;3897318;22;20434;-90
2021/12/09 12:14:16;;;;;;;9.32;7.60;;;24.90;59.40;;;;;;3895980;22;20358;-91
2021/12/09 12:15:56;;;;;;;8.20;7.22;;;24.80;59.40;;;;;;3897071;22;20121;-90
2021/12/09 12:17:35;;;;;;;13.00;7.53;;;24.80;59.40;;;;;;3897128;22;20035;-91
2021/12/09 12:19:14;;;;;;;8.77;7.30;;;24.80;59.20;;;;;;3895783;22;20023;-91
2021/12/09 12:20:56;;;;;;;9.35;7.55;;;24.80;59.40;;;;;;3896802;22;20027;-91
2021/12/09 12:26:51;;;;;;;9.52;7.82;;;24.90;59.50;;;;;;3895568;22;20023;-91
2021/12/09 12:28:30;;;;;;;26.65;18.65;;;24.90;57.90;;;;;;3887592;22;20020;-90
2021/12/09 12:30:22;;;;;;;30.15;20.80;;;24.90;50.60;;;;;;3890622;22;20020;-90
2021/12/09 12:32:19;;;;;;;32.97;23.02;;;24.80;47.40;;;;;;3892280;22;20074;-89
2021/12/09 12:36:20;;;;;;;40.08;26.38;;;24.70;40.30;;;;;;3869040;22;20081;-90
2021/12/09 12:38:03;;;;;;;36.97;26.92;;;24.60;41.60;;;;;;3894454;22;20016;-91
2021/12/09 12:39:58;;;;;;;42.60;28.00;;;24.50;39.70;;;;;;3893569;22;20023;-90
2021/12/09 12:41:33;;;;;;;39.03;27.10;;;24.50;38.70;;;;;;3894814;22;20515;-91
2021/12/09 12:43:10;;;;;;;36.53;26.45;;;24.50;40.10;;;;;;3892263;22;20020;-89
2021/12/09 12:45:13;;;;;;;41.13;26.90;;;24.40;39.90;;;;;;3893101;22;20488;-91
2021/12/09 12:49:10;;;;;;;34.65;25.77;;;24.40;40.10;;;;;;3885978;22;20015;-92
2021/12/09 12:51:00;;;;;;;39.88;27.52;;;24.30;40.90;;;;;;3893867;22;20478;-91
2021/12/09 12:52:37;;;;;;;39.35;27.20;;;24.10;38.20;;;;;;3893534;22;20022;-90
2021/12/09 12:54:28;;;;;;;37.42;26.05;;;24.00;36.80;;;;;;3893320;22;20027;-90
2021/12/09 12:56:11;;;;;;;39.85;28.13;;;23.90;37.90;;;;;;3893416;22;20016;-90
2021/12/09 12:57:45;;;;;;;41.40;27.95;;;23.90;36.60;;;;;;3893483;22;20020;-91
2021/12/09 12:59:29;;;;;;;39.13;27.75;;;23.80;36.70;;;;;;3892833;22;20033;-91
2021/12/09 13:01:22;;;;;;;40.28;27.52;;;23.70;37.30;;;;;;3892204;22;20030;-90
2021/12/09 13:03:14;;;;;;;35.83;26.30;;;23.70;37.30;;;;;;3892720;22;20024;-91
2021/12/09 13:05:00;;;;;;;38.58;26.73;;;23.60;39.00;;;;;;3892896;22;20043;-90
2021/12/09 13:06:41;;;;;;;38.25;25.80;;;23.50;36.70;;;;;;3893993;22;20312;-92
2021/12/09 13:08:41;;;;;;;36.42;24.83;;;23.50;40.60;;;;;;3892725;22;20362;-90
2021/12/09 13:10:27;;;;;;;37.78;27.15;;;23.50;39.10;;;;;;3893281;22;20405;-91
2021/12/09 13:12:03;;;;;;;40.03;27.42;;;23.40;36.20;;;;;;3893530;22;20019;-90
2021/12/09 13:13:43;;;;;;;38.97;26.85;;;23.30;35.80;;;;;;3892734;22;20450;-91
2021/12/09 13:15:24;;;;;;;35.67;26.10;;;23.30;37.40;;;;;;3890873;22;20076;-90
2021/12/09 13:17:13;;;;;;;39.08;26.40;;;23.20;38.60;;;;;;3893701;22;20023;-90
2021/12/09 13:20:42;;;;;;;36.60;26.00;;;23.30;38.20;;;;;;3890715;22;20466;-93
2021/12/09 13:22:23;;;;;;;34.97;23.45;;;23.20;38.40;;;;;;3893905;22;20091;-91
2021/12/09 13:24:35;;;;;;;39.15;26.73;;;23.20;39.90;;;;;;3893184;22;20020;-92
2021/12/09 13:26:35;;;;;;;29.00;20.25;;;23.00;37.50;;;;;;3904086;22;20004;-93
2021/12/09 13:28:16;;;;;;;28.08;19.23;;;23.20;46.90;;;;;;3904068;22;20027;-92
2021/12/09 13:30:04;;;;;;;25.25;18.27;;;23.50;47.70;;;;;;3894325;22;20556;-92
2021/12/09 13:31:51;;;;;;;25.13;17.90;;;23.50;48.90;;;;;;3892429;22;20315;-91
2021/12/09 13:33:41;;;;;;;21.88;16.70;;;23.60;49.40;;;;;;3893612;22;20099;-94
2021/12/09 13:35:20;;;;;;;15.45;11.43;;;23.70;49.60;;;;;;3892857;22;20019;-91
